createdAt,value
2023-03-28T00:05:47.650Z,2.9
2023-03-28T00:11:08.535Z,2.8
2023-03-28T00:16:45.201Z,2.6
2023-03-28T00:22:36.050Z,2.5
2023-03-28T00:27:55.566Z,2.4
2023-03-28T00:33:31.977Z,2.3
2023-03-28T00:39:24.186Z,2.2
2023-03-28T00:44:59.896Z,2.1
2023-03-28T00:51:09.086Z,2
2023-03-28T00:56:45.256Z,1.9
2023-03-28T01:02:20.751Z,1.8
2023-03-28T01:07:58.233Z,1.8
2023-03-28T01:13:34.693Z,1.7
2023-03-28T01:18:57.305Z,1.6
2023-03-28T01:24:30.422Z,1.6
2023-03-28T01:29:35.272Z,1.5
2023-03-28T01:35:11.117Z,1.4
2023-03-28T01:40:48.721Z,1.4
2023-03-28T01:46:25.265Z,1.4
2023-03-28T01:52:01.228Z,1.3
2023-03-28T01:57:44.620Z,1.3
2023-03-28T02:03:21.269Z,1.2
2023-03-28T02:08:57.211Z,1.2
2023-03-28T02:14:48.748Z,1.1
2023-03-28T02:20:40.391Z,1.1
2023-03-28T02:26:16.548Z,1.1
2023-03-28T02:32:08.465Z,1.1
2023-03-28T02:38:00.121Z,1
2023-03-28T02:43:51.202Z,1
2023-03-28T02:49:55.002Z,0.9
2023-03-28T02:55:16.286Z,1
2023-03-28T03:01:07.514Z,0.9
2023-03-28T03:06:45.328Z,0.9
2023-03-28T03:12:21.478Z,0.9
2023-03-28T03:17:58.060Z,0.9
2023-03-28T03:23:34.364Z,0.8
2023-03-28T03:28:56.916Z,0.8
2023-03-28T03:34:45.135Z,0.8
2023-03-28T03:40:21.935Z,0.8
2023-03-28T03:45:58.694Z,0.7
2023-03-28T03:51:25.250Z,0.7
2023-03-28T03:57:01.652Z,0.6
2023-03-28T04:02:22.588Z,0.6
2023-03-28T04:08:11.617Z,0.5
2023-03-28T04:13:48.362Z,0.5
2023-03-28T04:19:35.908Z,0.5
2023-03-28T04:25:36.582Z,0.4
2023-03-28T04:31:13.814Z,0.4
2023-03-28T04:36:50.594Z,0.4
2023-03-28T04:41:47.994Z,0.5
2023-03-28T04:47:10.157Z,0.5
2023-03-28T04:53:01.740Z,0.6
2023-03-28T04:58:53.482Z,0.6
2023-03-28T05:04:31.194Z,0.6
2023-03-28T05:10:23.250Z,0.7
2023-03-28T05:16:18.623Z,0.8
2023-03-28T05:22:10.972Z,0.9
2023-03-28T05:28:05.373Z,0.9
2023-03-28T05:33:56.484Z,1
2023-03-28T05:39:48.530Z,1.1
2023-03-28T05:45:39.715Z,1.2
2023-03-28T05:51:30.686Z,1.3
2023-03-28T05:57:11.238Z,1.3
2023-03-28T06:03:03.900Z,1.5
2023-03-28T06:09:09.249Z,1.7
2023-03-28T06:15:00.930Z,1.9
2023-03-28T06:21:17.974Z,2.4
2023-03-28T06:26:53.903Z,2.8
2023-03-28T06:32:46.816Z,3.4
2023-03-28T06:38:39.167Z,3.9
2023-03-28T06:44:30.929Z,4.3
2023-03-28T06:50:07.651Z,4.4
2023-03-28T06:55:44.107Z,4.6
2023-03-28T07:01:35.140Z,4.9
2023-03-28T07:07:30.804Z,5.3
2023-03-28T07:13:06.720Z,5.9
2023-03-28T07:19:00.100Z,6.6
2023-03-28T07:25:00.470Z,7.2
2023-03-28T07:31:10.685Z,7.6
2023-03-28T07:37:34.279Z,7.9
2023-03-28T07:42:54.660Z,8.1
2023-03-28T07:48:31.015Z,8.3
2023-03-28T07:54:22.029Z,8.4
2023-03-28T08:00:24.472Z,8.3
2023-03-28T08:06:31.337Z,8.2
2023-03-28T08:12:22.954Z,8.3
2023-03-28T08:18:15.206Z,8.5
2023-03-28T08:24:25.642Z,9.4
2023-03-28T08:30:04.597Z,10.9
2023-03-28T08:35:57.047Z,12.6
2023-03-28T08:41:51.718Z,14.4
2023-03-28T08:47:27.684Z,15.6
2023-03-28T08:53:22.284Z,16.4
2023-03-28T08:59:15.585Z,17.4
2023-03-28T09:05:22.373Z,18.8
2023-03-28T09:11:18.203Z,21.2
2023-03-28T09:16:53.805Z,22.3
2023-03-28T09:23:08.273Z,21.4
2023-03-28T09:29:01.145Z,20.4
2023-03-28T09:34:38.973Z,19.6
2023-03-28T09:40:41.932Z,18.9
2023-03-28T09:46:44.949Z,21.3
2023-03-28T09:52:47.485Z,24.1
2023-03-28T09:58:32.896Z,25.9
2023-03-28T10:04:25.598Z,25.2
2023-03-28T10:10:16.982Z,24.6
2023-03-28T10:16:07.636Z,26.8
2023-03-28T10:21:59.647Z,27.9
2023-03-28T10:27:50.104Z,29.8
2023-03-28T10:33:26.539Z,37.6
2023-03-28T10:39:19.772Z,35.3
2023-03-28T10:45:12.033Z,28.4
2023-03-28T10:51:03.013Z,32
2023-03-28T10:56:55.214Z,37.3
2023-03-28T11:02:47.696Z,29.4
2023-03-28T11:08:58.361Z,27
2023-03-28T11:15:06.242Z,37.1
2023-03-28T11:20:42.356Z,39.1
2023-03-28T11:26:45.478Z,33.3
2023-03-28T11:33:06.552Z,32.4
2023-03-28T11:38:42.622Z,34.6
2023-03-28T11:44:35.169Z,36.1
2023-03-28T11:50:41.053Z,36.1
2023-03-28T11:56:33.585Z,38.6
2023-03-28T12:02:34.181Z,39.6
2023-03-28T12:08:44.033Z,38.4
2023-03-28T12:14:46.132Z,37.6
2023-03-28T12:20:40.001Z,39.9
2023-03-28T12:26:31.927Z,39.8
2023-03-28T12:32:08.572Z,34.6
2023-03-28T12:38:00.591Z,32.5
2023-03-28T12:43:37.459Z,33.6
2023-03-28T12:49:29.982Z,36.6
2023-03-28T12:55:21.602Z,43.4
2023-03-28T13:01:15.462Z,35.5
2023-03-28T13:07:07.652Z,30.7
2023-03-28T13:12:59.581Z,34.1
2023-03-28T13:18:52.427Z,33
2023-03-28T13:24:29.399Z,33.1
2023-03-28T13:30:05.973Z,31.9
2023-03-28T13:35:57.980Z,29.6
2023-03-28T13:41:38.006Z,30.1
2023-03-28T13:47:14.180Z,31.6
2023-03-28T13:53:00.983Z,34.8
2023-03-28T13:59:05.765Z,35
2023-03-28T14:04:58.888Z,34
2023-03-28T14:10:50.688Z,33.6
2023-03-28T14:16:44.538Z,32.8
2023-03-28T14:22:40.974Z,31.8
2023-03-28T14:28:25.010Z,30.3
2023-03-28T14:34:26.746Z,29.6
2023-03-28T14:40:17.868Z,27.9
2023-03-28T14:46:09.422Z,26.6
2023-03-28T14:52:03.870Z,23.8
2023-03-28T14:57:54.955Z,21.9
2023-03-28T15:03:47.826Z,20.9
2023-03-28T15:09:26.153Z,19.9
2023-03-28T15:15:19.074Z,18.3
2023-03-28T15:21:11.529Z,17.1
2023-03-28T15:27:03.372Z,16
2023-03-28T15:32:41.654Z,14.8
2023-03-28T15:38:35.911Z,13.6
2023-03-28T15:44:27.055Z,12.4
2023-03-28T15:50:20.125Z,11.3
2023-03-28T15:56:28.889Z,10.1
2023-03-28T16:02:20.676Z,9.2
2023-03-28T16:08:15.568Z,8.4
2023-03-28T16:14:07.360Z,7.6
2023-03-28T16:19:44.099Z,6.9
2023-03-28T16:25:19.528Z,6.3
2023-03-28T16:30:56.803Z,5.6
2023-03-28T16:36:49.612Z,5.1
2023-03-28T16:42:40.701Z,4.5
2023-03-28T16:48:32.332Z,4.1
2023-03-28T16:54:23.410Z,3.6
2023-03-28T16:59:44.351Z,3.3
2023-03-28T17:05:40.012Z,2.9
2023-03-28T17:11:31.803Z,2.6
2023-03-28T17:17:23.576Z,2.3
2023-03-28T17:22:44.815Z,2.1
2023-03-28T17:28:52.598Z,1.8
2023-03-28T17:34:46.119Z,1.6
2023-03-28T17:40:38.317Z,1.4
2023-03-28T17:46:31.016Z,1.2
2023-03-28T17:52:10.435Z,1
2023-03-28T17:58:03.508Z,0.9
2023-03-28T18:03:40.886Z,0.7
2023-03-28T18:09:35.362Z,0.5
2023-03-28T18:15:27.303Z,0.4
2023-03-28T18:21:04.572Z,0.3
2023-03-28T18:26:42.456Z,0.1
2023-03-28T18:32:23.187Z,0
2023-03-28T18:38:15.995Z,-0.1
2023-03-28T18:43:39.803Z,-0.1
2023-03-28T18:49:32.891Z,-0.2
2023-03-28T18:54:54.248Z,-0.3
2023-03-28T19:00:31.570Z,-0.3
2023-03-28T19:06:10.897Z,-0.4
2023-03-28T19:11:33.113Z,-0.5
2023-03-28T19:17:10.118Z,-0.6
2023-03-28T19:22:50.359Z,-0.6
2023-03-28T19:28:29.330Z,-0.7
2023-03-28T19:34:22.335Z,-0.7
2023-03-28T19:40:16.060Z,-0.7
2023-03-28T19:45:39.718Z,-0.8
2023-03-28T19:51:36.459Z,-0.8
2023-03-28T19:57:30.173Z,-0.8
2023-03-28T20:03:06.752Z,-0.8
2023-03-28T20:08:43.393Z,-0.8
2023-03-28T20:14:23.161Z,-0.8
2023-03-28T20:20:00.785Z,-0.8
2023-03-28T20:25:37.442Z,-0.8
2023-03-28T20:31:29.330Z,-0.8
2023-03-28T20:37:21.028Z,-0.8
2023-03-28T20:42:58.916Z,-0.8
2023-03-28T20:48:51.253Z,-0.9
2023-03-28T20:54:46.588Z,-0.9
2023-03-28T21:00:38.527Z,-0.8
2023-03-28T21:06:30.768Z,-0.7
2023-03-28T21:12:21.834Z,-0.6
2023-03-28T21:18:13.457Z,-0.5
2023-03-28T21:23:49.337Z,-0.4
2023-03-28T21:29:09.760Z,-0.3
2023-03-28T21:34:32.524Z,-0.3
2023-03-28T21:40:08.812Z,-0.2
2023-03-28T21:45:43.739Z,-0.1
2023-03-28T21:50:49.745Z,-0.1
2023-03-28T21:56:41.498Z,-0.1
2023-03-28T22:02:19.853Z,-0.1
2023-03-28T22:07:49.874Z,-0.1
2023-03-28T22:12:55.796Z,-0.2
2023-03-28T22:23:52.102Z,-0.4
2023-03-28T22:28:57.586Z,-0.5
2023-03-28T22:34:33.588Z,-0.6
2023-03-28T22:40:08.797Z,-0.7
2023-03-28T22:45:45.452Z,-0.8
2023-03-28T22:51:06.985Z,-0.9
2023-03-28T23:02:20.335Z,-1
2023-03-28T23:08:11.991Z,-1.1
2023-03-28T23:13:47.975Z,-1.1
2023-03-28T23:19:40.310Z,-1.3
2023-03-28T23:25:16.896Z,-1.3
2023-03-28T23:31:10.673Z,-1.3
2023-03-28T23:37:02.529Z,-1.4
2023-03-28T23:42:54.187Z,-1.6
2023-03-28T23:48:30.181Z,-1.6
2023-03-28T23:53:51.025Z,-1.7
2023-03-28T23:59:14.319Z,-1.8
